createdAt,value
2019-01-06T00:02:09.957Z,10.17
2019-01-06T00:05:14.265Z,9.47
2019-01-06T00:08:11.628Z,7.57
2019-01-06T00:11:07.649Z,9.07
2019-01-06T00:13:58.249Z,8.93
2019-01-06T00:16:55.915Z,10.97
2019-01-06T00:19:48.049Z,8.23
2019-01-06T00:22:57.798Z,7.37
2019-01-06T00:25:51.571Z,9.73
2019-01-06T00:28:47.909Z,7.07
2019-01-06T00:31:41.446Z,9.30
2019-01-06T00:34:30.847Z,10.57
2019-01-06T00:37:25.750Z,10.03
2019-01-06T00:40:44.201Z,10.03
2019-01-06T00:43:48.117Z,11.23
2019-01-06T00:46:37.274Z,10.03
2019-01-06T00:49:26.548Z,9.07
2019-01-06T00:52:43.169Z,9.83
2019-01-06T00:55:31.939Z,10.77
2019-01-06T00:58:20.460Z,8.37
2019-01-06T01:01:11.474Z,9.70
2019-01-06T01:04:19.450Z,11.10
2019-01-06T01:07:23.491Z,14.40
2019-01-06T01:10:30.168Z,9.87
2019-01-06T01:13:25.482Z,12.63
2019-01-06T01:16:23.021Z,17.13
2019-01-06T01:19:13.233Z,10.17
2019-01-06T01:22:03.869Z,11.87
2019-01-06T01:24:51.770Z,10.27
2019-01-06T01:27:50.966Z,12.30
2019-01-06T01:30:40.957Z,14.73
2019-01-06T01:33:39.542Z,10.97
2019-01-06T01:36:28.093Z,10.70
2019-01-06T01:39:22.360Z,10.43
2019-01-06T01:42:16.664Z,11.93
2019-01-06T01:45:16.953Z,11.43
2019-01-06T01:48:18.442Z,16.43
2019-01-06T01:51:08.845Z,10.30
2019-01-06T01:54:03.245Z,11.40
2019-01-06T01:56:51.983Z,9.00
2019-01-06T01:59:45.861Z,13.20
2019-01-06T02:02:35.842Z,9.40
2019-01-06T02:05:25.531Z,8.87
2019-01-06T02:08:19.923Z,12.20
2019-01-06T02:11:11.429Z,10.57
2019-01-06T02:14:00.902Z,9.50
2019-01-06T02:16:48.942Z,8.10
2019-01-06T02:19:36.681Z,12.07
2019-01-06T02:22:26.659Z,10.83
2019-01-06T02:25:20.334Z,7.97
2019-01-06T02:28:16.053Z,10.07
2019-01-06T02:31:04.811Z,8.83
2019-01-06T02:33:57.674Z,9.03
2019-01-06T02:36:46.519Z,10.70
2019-01-06T02:39:34.969Z,10.80
2019-01-06T02:42:23.363Z,7.20
2019-01-06T02:45:29.994Z,9.87
2019-01-06T02:48:17.824Z,8.80
2019-01-06T02:51:10.874Z,9.27
2019-01-06T02:54:14.999Z,8.47
2019-01-06T02:57:23.208Z,9.33
2019-01-06T03:00:12.682Z,12.47
2019-01-06T03:03:01.359Z,11.83
2019-01-06T03:06:08.729Z,9.13
2019-01-06T03:09:07.215Z,11.23
2019-01-06T03:11:58.736Z,12.03
2019-01-06T03:14:51.280Z,9.13
2019-01-06T03:17:46.198Z,9.20
2019-01-06T03:20:37.598Z,11.93
2019-01-06T03:23:25.227Z,12.27
2019-01-06T03:26:13.576Z,10.40
2019-01-06T03:29:03.866Z,10.33
2019-01-06T03:32:02.974Z,11.07
2019-01-06T03:35:02.064Z,11.27
2019-01-06T03:38:08.433Z,11.50
2019-01-06T03:40:56.677Z,11.07
2019-01-06T03:43:56.787Z,10.87
2019-01-06T03:46:53.036Z,14.10
2019-01-06T03:49:47.333Z,11.90
2019-01-06T03:52:43.039Z,11.47
2019-01-06T03:55:32.637Z,11.33
2019-01-06T03:58:32.127Z,12.10
2019-01-06T04:01:22.622Z,10.50
2019-01-06T04:04:16.599Z,11.63
2019-01-06T04:07:08.738Z,12.60
2019-01-06T04:09:57.693Z,9.63
2019-01-06T04:12:52.191Z,11.40
2019-01-06T04:15:42.867Z,13.47
2019-01-06T04:18:44.153Z,12.23
2019-01-06T04:21:34.119Z,9.67
2019-01-06T04:24:22.775Z,10.57
2019-01-06T04:27:06.917Z,9.13
2019-01-06T04:30:16.099Z,9.50
2019-01-06T04:33:08.295Z,13.03
2019-01-06T04:36:00.101Z,12.03
2019-01-06T04:38:56.662Z,12.57
2019-01-06T04:41:47.063Z,11.90
2019-01-06T04:44:56.089Z,9.27
2019-01-06T04:47:47.407Z,9.90
2019-01-06T04:50:49.367Z,12.17
2019-01-06T04:53:48.667Z,11.00
2019-01-06T04:56:41.114Z,9.63
2019-01-06T04:59:30.074Z,12.40
2019-01-06T05:02:38.391Z,9.37
2019-01-06T05:05:27.764Z,13.57
2019-01-06T05:08:16.315Z,10.77
2019-01-06T05:11:07.017Z,11.80
2019-01-06T05:14:07.545Z,12.43
2019-01-06T05:17:13.709Z,10.63
2019-01-06T05:20:05.771Z,9.17
2019-01-06T05:22:53.680Z,10.03
2019-01-06T05:25:47.769Z,8.67
2019-01-06T05:28:42.665Z,11.47
2019-01-06T05:31:30.392Z,8.80
2019-01-06T05:34:22.938Z,8.23
2019-01-06T05:37:16.478Z,7.97
2019-01-06T05:40:02.911Z,9.27
2019-01-06T05:42:53.405Z,8.97
2019-01-06T05:45:52.299Z,8.53
2019-01-06T05:48:51.090Z,9.30
2019-01-06T05:51:39.846Z,10.57
2019-01-06T05:54:30.467Z,9.33
2019-01-06T05:57:30.356Z,7.97
2019-01-06T06:00:18.301Z,11.87
2019-01-06T06:03:09.517Z,10.40
2019-01-06T06:06:10.865Z,7.77
2019-01-06T06:08:57.250Z,10.63
2019-01-06T06:11:49.004Z,8.10
2019-01-06T06:14:50.736Z,11.33
2019-01-06T06:17:38.999Z,11.77
2019-01-06T06:20:31.236Z,10.80
2019-01-06T06:23:23.386Z,7.77
2019-01-06T06:26:29.127Z,8.77
2019-01-06T06:29:25.064Z,7.03
2019-01-06T06:32:13.192Z,9.87
2019-01-06T06:35:14.236Z,9.60
2019-01-06T06:38:04.733Z,9.63
2019-01-06T06:40:56.975Z,9.10
2019-01-06T06:44:00.166Z,9.43
2019-01-06T06:47:02.830Z,8.90
2019-01-06T06:50:03.381Z,6.70
2019-01-06T06:52:52.752Z,10.30
2019-01-06T06:55:59.960Z,7.90
2019-01-06T06:58:58.630Z,10.03
2019-01-06T07:02:21.484Z,12.17
2019-01-06T07:05:09.729Z,10.57
2019-01-06T07:07:58.281Z,9.27
2019-01-06T07:10:47.869Z,8.63
2019-01-06T07:13:35.793Z,10.13
2019-01-06T07:17:00.698Z,9.33
2019-01-06T07:19:55.789Z,10.57
2019-01-06T07:22:53.076Z,10.37
2019-01-06T07:25:40.994Z,13.87
2019-01-06T07:28:29.852Z,10.93
2019-01-06T07:31:25.064Z,14.03
2019-01-06T07:34:25.501Z,12.87
2019-01-06T07:37:19.776Z,12.10
2019-01-06T07:40:08.737Z,10.40
2019-01-06T07:42:59.439Z,11.10
2019-01-06T07:46:05.809Z,10.90
2019-01-06T07:48:54.769Z,11.50
2019-01-06T07:51:47.930Z,11.33
2019-01-06T07:54:38.118Z,10.90
2019-01-06T07:57:21.626Z,12.40
2019-01-06T08:00:15.683Z,12.07
2019-01-06T08:03:17.699Z,12.00
2019-01-06T08:06:17.804Z,14.50
2019-01-06T08:09:06.581Z,10.03
2019-01-06T08:11:57.484Z,15.27
2019-01-06T08:15:00.579Z,15.20
2019-01-06T08:17:48.718Z,15.43
2019-01-06T08:20:41.675Z,25.37
2019-01-06T08:23:28.381Z,19.67
2019-01-06T08:26:20.721Z,16.47
2019-01-06T08:29:23.813Z,15.47
2019-01-06T08:32:13.379Z,14.00
2019-01-06T08:35:05.628Z,14.63
2019-01-06T08:38:04.729Z,15.20
2019-01-06T08:40:56.760Z,19.17
2019-01-06T08:43:45.311Z,13.77
2019-01-06T08:46:38.367Z,16.47
2019-01-06T08:49:33.062Z,15.43
2019-01-06T08:52:27.656Z,13.27
2019-01-06T08:55:24.811Z,14.10
2019-01-06T08:58:24.319Z,13.13
2019-01-06T09:01:20.345Z,13.23
2019-01-06T09:04:24.666Z,10.70
2019-01-06T09:07:16.800Z,11.17
2019-01-06T09:10:09.054Z,9.77
2019-01-06T09:12:58.309Z,11.23
2019-01-06T09:15:46.346Z,10.97
2019-01-06T09:18:33.976Z,9.50
2019-01-06T09:21:22.220Z,11.13
2019-01-06T09:24:17.223Z,9.27
2019-01-06T09:27:06.087Z,10.53
2019-01-06T09:30:07.433Z,8.50
2019-01-06T09:32:57.745Z,12.23
2019-01-06T09:35:55.202Z,11.73
2019-01-06T09:38:53.772Z,8.20
2019-01-06T09:41:55.946Z,8.83
2019-01-06T09:44:52.278Z,8.60
2019-01-06T09:47:40.525Z,9.03
2019-01-06T09:50:43.940Z,9.80
2019-01-06T09:53:36.158Z,10.53
2019-01-06T09:56:34.016Z,12.63
2019-01-06T09:59:40.398Z,12.03
2019-01-06T10:02:28.381Z,15.03
2019-01-06T10:05:17.602Z,13.40
2019-01-06T10:08:06.946Z,13.20
2019-01-06T10:11:15.391Z,16.57
2019-01-06T10:14:05.513Z,11.33
2019-01-06T10:16:57.818Z,14.33
2019-01-06T10:19:48.828Z,9.97
2019-01-06T10:22:37.074Z,13.10
2019-01-06T10:25:27.758Z,14.97
2019-01-06T10:28:21.529Z,14.97
2019-01-06T10:31:28.838Z,15.97
2019-01-06T10:34:21.280Z,17.40
2019-01-06T10:37:10.246Z,17.27
2019-01-06T10:39:59.407Z,17.30
2019-01-06T10:42:53.592Z,13.90
2019-01-06T10:45:40.302Z,9.60
2019-01-06T10:48:28.268Z,19.13
2019-01-06T10:51:28.260Z,12.07
2019-01-06T10:54:17.204Z,15.53
2019-01-06T10:57:07.341Z,13.87
2019-01-06T11:00:15.721Z,12.73
2019-01-06T11:03:11.134Z,12.30
2019-01-06T11:06:01.119Z,12.70
2019-01-06T11:08:54.077Z,12.03
2019-01-06T11:11:48.871Z,12.23
2019-01-06T11:14:36.199Z,10.83
2019-01-06T11:17:25.667Z,8.13
2019-01-06T11:20:34.597Z,12.30
2019-01-06T11:23:22.535Z,9.07
2019-01-06T11:26:16.716Z,7.23
2019-01-06T11:29:04.757Z,9.20
2019-01-06T11:32:00.070Z,11.37
2019-01-06T11:34:48.823Z,10.00
2019-01-06T11:37:38.608Z,7.63
2019-01-06T11:40:30.024Z,7.33
2019-01-06T11:43:23.694Z,10.07
2019-01-06T11:46:11.854Z,8.93
2019-01-06T11:49:01.412Z,7.50
2019-01-06T11:51:44.842Z,9.17
2019-01-06T11:54:33.085Z,6.83
2019-01-06T11:57:22.558Z,9.50
2019-01-06T12:00:17.544Z,7.13
2019-01-06T12:03:23.008Z,6.10
2019-01-06T12:06:27.844Z,6.67
2019-01-06T12:09:19.249Z,8.57
2019-01-06T12:12:10.170Z,11.63
2019-01-06T12:15:02.719Z,9.20
2019-01-06T12:18:04.054Z,7.73
2019-01-06T12:20:52.519Z,12.40
2019-01-06T12:23:51.204Z,9.30
2019-01-06T12:26:42.573Z,10.27
2019-01-06T12:29:35.679Z,11.23
2019-01-06T12:32:24.333Z,9.27
2019-01-06T12:35:35.821Z,12.10
2019-01-06T12:38:37.279Z,10.07
2019-01-06T12:41:27.672Z,15.87
2019-01-06T12:44:21.754Z,8.77
2019-01-06T12:47:15.324Z,10.80
2019-01-06T12:50:11.044Z,15.30
2019-01-06T12:53:04.612Z,14.47
2019-01-06T12:55:57.686Z,14.27
2019-01-06T12:58:47.754Z,12.93
2019-01-06T13:01:38.765Z,16.73
2019-01-06T13:04:31.436Z,10.83
2019-01-06T13:07:23.243Z,11.00
2019-01-06T13:10:17.322Z,13.70
2019-01-06T13:13:05.668Z,12.23
2019-01-06T13:16:13.573Z,12.87
2019-01-06T13:19:06.034Z,19.97
2019-01-06T13:21:57.537Z,14.33
2019-01-06T13:24:47.218Z,13.80
2019-01-06T13:27:36.991Z,12.77
2019-01-06T13:30:35.051Z,13.97
2019-01-06T13:33:28.756Z,12.70
2019-01-06T13:36:21.897Z,13.23
2019-01-06T13:39:07.061Z,12.83
2019-01-06T13:42:07.708Z,10.23
2019-01-06T13:44:55.948Z,12.73
2019-01-06T13:47:48.698Z,13.23
2019-01-06T13:50:36.433Z,12.33
2019-01-06T13:53:32.458Z,9.73
2019-01-06T13:56:25.981Z,8.60
2019-01-06T13:59:21.550Z,13.83
2019-01-06T14:02:18.595Z,12.07
2019-01-06T14:05:26.516Z,13.30
2019-01-06T14:08:22.421Z,7.97
2019-01-06T14:11:16.502Z,13.17
2019-01-06T14:14:09.354Z,16.77
2019-01-06T14:17:00.159Z,13.60
2019-01-06T14:19:53.710Z,12.30
2019-01-06T14:22:46.791Z,10.23
2019-01-06T14:25:47.538Z,13.43
2019-01-06T14:28:42.401Z,9.50
2019-01-06T14:31:42.820Z,13.13
2019-01-06T14:34:24.241Z,9.67
2019-01-06T14:37:14.835Z,14.60
2019-01-06T14:40:19.117Z,13.63
2019-01-06T14:43:10.781Z,12.07
2019-01-06T14:46:17.563Z,11.83
2019-01-06T14:49:08.549Z,11.07
2019-01-06T14:51:58.555Z,16.97
2019-01-06T14:54:51.457Z,11.20
2019-01-06T14:58:00.432Z,12.43
2019-01-06T15:01:04.151Z,9.70
2019-01-06T15:03:52.637Z,11.70
2019-01-06T15:06:45.137Z,15.60
2019-01-06T15:09:47.519Z,8.53
2019-01-06T15:12:49.384Z,13.13
2019-01-06T15:15:58.454Z,7.87
2019-01-06T15:18:59.764Z,10.23
2019-01-06T15:21:50.264Z,16.63
2019-01-06T15:24:46.700Z,9.97
2019-01-06T15:27:44.550Z,12.27
2019-01-06T15:30:45.509Z,9.43
2019-01-06T15:33:41.025Z,11.93
2019-01-06T15:36:35.206Z,15.10
2019-01-06T15:39:21.814Z,15.40
2019-01-06T15:42:26.647Z,10.07
2019-01-06T15:45:08.964Z,10.93
2019-01-06T15:48:08.037Z,9.20
2019-01-06T15:51:02.351Z,12.83
2019-01-06T15:53:52.439Z,8.70
2019-01-06T15:56:57.255Z,8.83
2019-01-06T15:59:49.289Z,15.17
2019-01-06T16:02:40.777Z,9.87
2019-01-06T16:05:35.203Z,9.07
2019-01-06T16:08:30.504Z,11.10
2019-01-06T16:11:21.368Z,12.17
2019-01-06T16:14:13.360Z,12.13
2019-01-06T16:17:10.086Z,11.63
2019-01-06T16:20:03.142Z,8.17
2019-01-06T16:22:57.721Z,12.07
2019-01-06T16:25:49.255Z,15.67
2019-01-06T16:28:41.497Z,12.20
2019-01-06T16:31:50.527Z,9.70
2019-01-06T16:34:37.169Z,10.83
2019-01-06T16:37:26.092Z,12.83
2019-01-06T16:40:14.335Z,15.57
2019-01-06T16:43:07.898Z,17.33
2019-01-06T16:46:03.421Z,14.50
2019-01-06T16:48:52.790Z,16.37
2019-01-06T16:51:44.824Z,17.77
2019-01-06T16:54:44.746Z,12.63
2019-01-06T16:57:35.649Z,15.70
2019-01-06T17:00:26.760Z,15.50
2019-01-06T17:03:25.450Z,12.47
2019-01-06T17:06:19.856Z,15.10
2019-01-06T17:09:09.208Z,19.17
2019-01-06T17:12:02.558Z,18.43
2019-01-06T17:15:07.407Z,16.97
2019-01-06T17:18:16.539Z,19.67
2019-01-06T17:21:06.426Z,23.20
2019-01-06T17:23:55.899Z,24.07
2019-01-06T17:26:40.964Z,25.40
2019-01-06T17:29:30.130Z,27.10
2019-01-06T17:32:17.773Z,29.73
2019-01-06T17:35:12.110Z,29.77
2019-01-06T17:37:55.580Z,27.17
2019-01-06T17:40:46.691Z,31.53
2019-01-06T17:43:38.422Z,27.73
2019-01-06T17:46:36.394Z,27.67
2019-01-06T17:49:37.198Z,31.73
2019-01-06T17:52:31.208Z,25.73
2019-01-06T17:55:19.560Z,26.67
2019-01-06T17:58:09.848Z,25.17
2019-01-06T18:01:01.471Z,27.33
2019-01-06T18:04:00.980Z,26.03
2019-01-06T18:06:54.226Z,25.23
2019-01-06T18:09:41.769Z,26.57
2019-01-06T18:12:34.928Z,25.37
2019-01-06T18:15:26.245Z,22.57
2019-01-06T18:18:14.057Z,22.53
2019-01-06T18:21:07.032Z,22.43
2019-01-06T18:24:07.872Z,19.80
2019-01-06T18:26:56.425Z,21.70
2019-01-06T18:30:00.644Z,21.50
2019-01-06T18:33:02.813Z,20.90
2019-01-06T18:35:56.279Z,24.47
2019-01-06T18:38:46.678Z,22.10
2019-01-06T18:41:38.280Z,23.63
2019-01-06T18:44:45.146Z,26.43
2019-01-06T18:47:38.647Z,31.33
2019-01-06T18:50:41.229Z,28.73
2019-01-06T18:53:29.268Z,23.77
2019-01-06T18:56:10.530Z,26.03
2019-01-06T18:58:58.485Z,25.37
2019-01-06T19:01:48.580Z,28.93
2019-01-06T19:04:43.780Z,27.13
2019-01-06T19:07:36.442Z,29.83
2019-01-06T19:10:29.104Z,29.23
2019-01-06T19:13:27.211Z,25.07
2019-01-06T19:16:19.084Z,26.13
2019-01-06T19:19:26.983Z,26.97
2019-01-06T19:22:16.763Z,28.33
2019-01-06T19:25:14.121Z,27.97
2019-01-06T19:28:02.468Z,30.77
2019-01-06T19:31:07.516Z,23.50
2019-01-06T19:33:55.750Z,26.87
2019-01-06T19:36:48.404Z,21.60
2019-01-06T19:39:41.164Z,24.33
2019-01-06T19:42:39.823Z,27.50
2019-01-06T19:45:28.081Z,25.40
2019-01-06T19:48:17.661Z,27.03
2019-01-06T19:51:13.379Z,29.93
2019-01-06T19:54:11.373Z,28.80
2019-01-06T19:57:03.689Z,30.67
2019-01-06T19:59:55.824Z,31.53
2019-01-06T20:02:51.567Z,29.20
2019-01-06T20:05:42.041Z,29.83
2019-01-06T20:08:30.498Z,31.00
2019-01-06T20:11:25.802Z,36.33
2019-01-06T20:14:13.737Z,34.97
2019-01-06T20:16:59.933Z,31.30
2019-01-06T20:19:57.293Z,35.87
2019-01-06T20:22:46.569Z,36.03
2019-01-06T20:25:43.613Z,28.37
2019-01-06T20:28:33.595Z,37.53
2019-01-06T20:31:24.608Z,30.10
2019-01-06T20:34:16.126Z,34.90
2019-01-06T20:37:21.777Z,32.73
2019-01-06T20:40:10.640Z,31.43
2019-01-06T20:43:19.366Z,28.00
2019-01-06T20:46:09.037Z,33.27
2019-01-06T20:49:04.803Z,27.17
2019-01-06T20:51:53.110Z,40.80
2019-01-06T20:54:51.589Z,27.07
2019-01-06T20:57:50.686Z,25.40
2019-01-06T21:00:40.365Z,33.83
2019-01-06T21:03:45.607Z,28.57
2019-01-06T21:06:41.839Z,35.80
2019-01-06T21:09:32.546Z,28.97
2019-01-06T21:12:26.213Z,28.30
2019-01-06T21:15:34.731Z,32.00
2019-01-06T21:18:33.728Z,27.43
2019-01-06T21:21:24.225Z,31.30
2019-01-06T21:24:11.184Z,28.33
2019-01-06T21:27:23.939Z,28.20
2019-01-06T21:30:45.569Z,27.17
2019-01-06T21:33:52.752Z,24.03
2019-01-06T21:37:05.267Z,24.90
2019-01-06T21:40:15.672Z,20.87
2019-01-06T21:43:31.726Z,28.30
2019-01-06T21:46:46.186Z,24.57
2019-01-06T21:49:59.214Z,24.20
2019-01-06T21:53:09.575Z,29.03
2019-01-06T21:56:18.930Z,33.70
2019-01-06T21:59:09.489Z,36.53
2019-01-06T22:02:01.350Z,28.77
2019-01-06T22:04:49.506Z,32.53
2019-01-06T22:07:37.522Z,30.23
2019-01-06T22:10:30.606Z,30.17
2019-01-06T22:13:18.208Z,38.33
2019-01-06T22:16:07.271Z,33.03
2019-01-06T22:19:00.498Z,39.07
2019-01-06T22:21:51.134Z,33.20
2019-01-06T22:24:46.901Z,34.37
2019-01-06T22:27:40.731Z,28.63
2019-01-06T22:30:38.802Z,42.37
2019-01-06T22:33:26.885Z,31.60
2019-01-06T22:36:20.000Z,33.97
2019-01-06T22:39:09.091Z,27.63
2019-01-06T22:42:00.324Z,25.60
2019-01-06T22:44:45.658Z,37.27
2019-01-06T22:47:40.659Z,29.67
2019-01-06T22:50:42.113Z,35.90
2019-01-06T22:53:28.818Z,34.87
2019-01-06T22:56:17.908Z,44.93
2019-01-06T22:59:19.606Z,33.33
2019-01-06T23:02:07.173Z,30.63
2019-01-06T23:04:51.832Z,37.47
2019-01-06T23:07:45.619Z,36.33
2019-01-06T23:10:42.145Z,36.47
2019-01-06T23:13:30.188Z,31.37
2019-01-06T23:16:38.705Z,35.60
2019-01-06T23:19:30.633Z,33.90
2019-01-06T23:22:20.597Z,30.90
2019-01-06T23:25:15.139Z,26.67
2019-01-06T23:28:07.348Z,32.53
2019-01-06T23:31:12.903Z,32.03
2019-01-06T23:34:17.577Z,32.03
2019-01-06T23:37:08.636Z,34.03
2019-01-06T23:39:58.008Z,30.60
2019-01-06T23:42:45.543Z,34.73
2019-01-06T23:45:47.198Z,37.67
2019-01-06T23:48:32.695Z,33.80
2019-01-06T23:51:24.298Z,37.43
2019-01-06T23:54:01.687Z,33.33
2019-01-06T23:56:50.551Z,36.10
2019-01-06T23:59:41.553Z,33.70
